Saint Hedwig, Texas
Current Conditions -  °F | °C
As of 12:13 AM on Saturday 20 Dec 2014 (Local Time) from KRND Reporting Station
Overcast Overcast  
Wind Chill: 50°   Ceiling: 1000
Heat Index: 50°   Visibility: 10mi
Dew Point: 45°   Wind: 14mph
Humidity: 82%   Direction: 20°NNE
Pressure: 30.17"   Gusts: NA
Location:  29.41°N, 98.2°W
Report Text: KRND 200613Z AUTO 02012KT 10SM OVC010 10/07 A3017 RMK AO2
Loading
Personal Weather Stations






























Interactive Weather Map New forecast layout! Learn more

10-Day Weather Forecast

Advertisements
Track Severe Weather on mobile